Time;durP1;ratioP1;P1;durP2;ratioP2;P2;SDS_P1;SDS_P2;PMS_P1;PMS_P2;Temp;Humidity;BMP_temperature;BMP_pressure;BME280_temperature;BME280_humidity;BME280_pressure;Samples;Min_cycle;Max_cycle;Signal;HPM_P1;HPM_P2
2021/10/12 00:01:41;;;;;;;76.25;42.93;;;;;;;7.68;68.59;101057.75;1783597;80;21145;-82
2021/10/12 00:04:08;;;;;;;83.33;43.30;;;;;;;7.68;68.74;101056.45;1783665;79;20860;-81
2021/10/12 00:06:35;;;;;;;75.83;42.55;;;;;;;7.70;68.86;101054.63;1783579;80;20923;-81
2021/10/12 00:09:03;;;;;;;69.95;42.75;;;;;;;7.73;68.85;101057.10;1783862;79;21429;-81
2021/10/12 00:11:30;;;;;;;76.60;43.63;;;;;;;7.75;68.82;101052.66;1783486;80;20994;-81
2021/10/12 00:13:56;;;;;;;75.25;43.55;;;;;;;7.78;68.84;101048.64;1783942;80;20961;-81
2021/10/12 00:16:23;;;;;;;80.83;46.37;;;;;;;7.81;68.80;101048.97;1783409;80;20919;-81
2021/10/12 00:18:50;;;;;;;78.22;45.98;;;;;;;7.81;68.61;101041.98;1783698;79;20962;-81
2021/10/12 00:21:17;;;;;;;66.33;41.65;;;;;;;7.81;68.55;101044.59;1783529;80;20914;-81
2021/10/12 00:23:44;;;;;;;72.72;46.20;;;;;;;7.81;68.64;101041.14;1783487;79;20959;-81
2021/10/12 00:26:11;;;;;;;82.82;43.85;;;;;;;7.79;68.77;101035.97;1783408;79;21140;-81
2021/10/12 00:28:38;;;;;;;82.08;45.38;;;;;;;7.78;68.87;101032.11;1783708;79;20832;-81
2021/10/12 00:31:04;;;;;;;75.35;41.75;;;;;;;7.80;69.06;101031.59;1783528;80;21469;-81
2021/10/12 00:33:32;;;;;;;76.17;43.73;;;;;;;7.82;69.17;101027.99;1783970;79;20955;-82
2021/10/12 00:35:59;;;;;;;82.97;45.80;;;;;;;7.84;68.99;101022.25;1783679;79;20840;-82
2021/10/12 00:38:26;;;;;;;81.00;46.13;;;;;;;7.88;68.83;101025.59;1783462;80;21980;-80
2021/10/12 00:40:54;;;;;;;87.92;48.75;;;;;;;7.90;68.69;101023.77;1783467;80;20845;-81
2021/10/12 00:43:25;;;;;;;85.42;47.40;;;;;;;7.91;68.56;101018.92;1783719;80;20908;-81
2021/10/12 00:45:50;;;;;;;84.47;49.27;;;;;;;7.89;68.51;101025.97;1782998;80;20970;-81
2021/10/12 00:48:17;;;;;;;87.10;48.05;;;;;;;7.87;68.48;101025.22;1783555;80;20907;-83
2021/10/12 00:50:44;;;;;;;77.90;44.58;;;;;;;7.86;68.35;101023.50;1783713;80;21454;-83
2021/10/12 00:53:11;;;;;;;77.03;46.05;;;;;;;7.85;68.25;101018.75;1783419;80;21507;-83
2021/10/12 00:55:40;;;;;;;76.82;42.80;;;;;;;7.81;68.37;101022.40;1783520;80;20896;-84
2021/10/12 00:58:09;;;;;;;85.75;45.78;;;;;;;7.79;68.65;101021.61;1783472;79;20892;-84
2021/10/12 01:00:37;;;;;;;87.30;48.08;;;;;;;7.81;68.89;101022.86;1783439;79;20915;-83
2021/10/12 01:03:05;;;;;;;78.07;47.23;;;;;;;7.84;69.05;101017.50;1783358;80;21076;-80
2021/10/12 01:05:32;;;;;;;84.77;48.33;;;;;;;7.86;69.19;101006.53;1777757;79;20900;-80
2021/10/12 01:08:01;;;;;;;90.42;48.92;;;;;;;7.88;69.24;101012.54;1775462;80;20976;-80
2021/10/12 01:10:27;;;;;;;80.35;47.80;;;;;;;7.91;69.22;101007.64;1775236;80;20908;-80
2021/10/12 01:12:54;;;;;;;80.00;45.48;;;;;;;7.88;69.06;101004.70;1754118;79;20943;-79
2021/10/12 01:15:21;;;;;;;80.15;46.70;;;;;;;7.88;69.01;101008.62;1775324;80;21147;-80
2021/10/12 01:19:01;;;;;;;81.60;47.38;;;;;;;7.88;69.17;100999.02;1816401;79;23161;-81
2021/10/12 01:21:29;;;;;;;76.17;45.52;;;;;;;7.83;69.37;100995.77;1789821;80;20876;-81
2021/10/12 01:23:57;;;;;;;82.05;45.45;;;;;;;7.81;69.62;100994.98;1789598;80;21110;-81
2021/10/12 01:26:24;;;;;;;80.07;42.80;;;;;;;7.82;69.73;100995.82;1789501;79;20912;-81
2021/10/12 01:28:51;;;;;;;83.92;45.55;;;;;;;7.82;69.88;100995.36;1789855;80;20951;-80
2021/10/12 01:31:26;;;;;;;81.15;44.45;;;;;;;7.82;69.96;100994.52;1789592;80;20888;-82
2021/10/12 01:33:53;;;;;;;79.72;45.20;;;;;;;7.82;69.81;100997.97;1789683;80;20983;-80
2021/10/12 01:36:21;;;;;;;80.20;45.25;;;;;;;7.83;69.58;101000.15;1789466;80;21975;-80
2021/10/12 01:38:47;;;;;;;84.60;47.83;;;;;;;7.79;69.35;100998.11;1789689;80;20883;-80
2021/10/12 01:41:14;;;;;;;89.10;47.62;;;;;;;7.75;69.27;100993.09;1789650;80;20940;-81
2021/10/12 01:43:41;;;;;;;75.25;42.40;;;;;;;7.70;69.16;100999.81;1789721;80;20892;-79
2021/10/12 01:46:08;;;;;;;74.40;40.90;;;;;;;7.61;69.04;101002.81;1789441;80;20884;-80
2021/10/12 01:48:36;;;;;;;69.32;39.83;;;;;;;7.53;69.30;101002.27;1789494;80;21144;-79
2021/10/12 01:51:04;;;;;;;71.57;39.60;;;;;;;7.46;69.59;101006.42;1789397;79;20931;-79
2021/10/12 01:53:32;;;;;;;67.80;39.48;;;;;;;7.41;69.58;100999.71;1789680;80;20899;-78
2021/10/12 01:55:59;;;;;;;73.12;38.75;;;;;;;7.37;69.69;100996.83;1789392;80;20900;-79
2021/10/12 01:58:26;;;;;;;67.97;40.38;;;;;;;7.29;69.66;100986.69;1789725;80;20892;-80
2021/10/12 02:00:53;;;;;;;73.87;37.28;;;;;;;7.20;69.76;100984.02;1789465;80;21476;-81
2021/10/12 02:03:20;;;;;;;73.20;38.53;;;;;;;7.14;69.90;100986.02;1789724;80;20990;-81
2021/10/12 02:05:47;;;;;;;77.10;40.08;;;;;;;7.05;70.02;100989.38;1789370;80;21405;-81
2021/10/12 02:08:14;;;;;;;73.62;36.25;;;;;;;6.99;70.26;100989.61;1789406;80;20908;-81
2021/10/12 02:10:41;;;;;;;69.50;40.10;;;;;;;6.96;70.49;100983.23;1789551;80;20971;-80
2021/10/12 02:13:08;;;;;;;66.30;34.40;;;;;;;6.93;70.61;100979.42;1789459;80;21149;-80
2021/10/12 02:15:35;;;;;;;65.22;36.53;;;;;;;6.87;70.55;100967.95;1789602;80;20884;-81
2021/10/12 02:18:03;;;;;;;67.80;37.45;;;;;;;6.80;70.77;100972.55;1786416;80;21424;-82
2021/10/12 02:20:31;;;;;;;64.25;36.83;;;;;;;6.77;71.22;100972.66;1784294;80;20955;-81
2021/10/12 02:22:57;;;;;;;70.60;38.55;;;;;;;6.78;71.35;100974.37;1784477;80;21437;-80
2021/10/12 02:25:25;;;;;;;68.22;37.93;;;;;;;6.81;71.31;100973.39;1784594;80;21539;-81
2021/10/12 02:27:52;;;;;;;82.95;42.23;;;;;;;6.82;71.28;100968.56;1785839;80;20861;-79
2021/10/12 02:30:18;;;;;;;80.62;40.80;;;;;;;6.80;71.11;100964.73;1787590;79;20861;-80
2021/10/12 02:32:46;;;;;;;79.97;40.85;;;;;;;6.77;70.89;100963.98;1785613;80;20927;-80
2021/10/12 02:35:12;;;;;;;70.08;40.15;;;;;;;6.70;70.62;100958.63;1784231;80;20963;-80
2021/10/12 02:37:39;;;;;;;67.15;41.70;;;;;;;6.61;70.79;100954.16;1783861;80;21558;-83
2021/10/12 02:40:08;;;;;;;76.42;42.83;;;;;;;6.53;71.05;100950.14;1783803;80;20872;-80
2021/10/12 02:42:35;;;;;;;68.05;39.83;;;;;;;6.48;71.23;100946.41;1783865;80;21362;-81
2021/10/12 02:45:03;;;;;;;81.55;41.35;;;;;;;6.46;71.40;100952.58;1783879;80;20983;-85
2021/10/12 02:47:32;;;;;;;67.53;37.98;;;;;;;6.43;71.49;100941.83;1783545;80;20951;-83
2021/10/12 02:49:58;;;;;;;71.57;41.55;;;;;;;6.41;71.59;100939.27;1783546;80;22858;-80
2021/10/12 02:52:25;;;;;;;85.62;44.53;;;;;;;6.41;71.54;100933.22;1783826;80;20857;-80
2021/10/12 02:54:52;;;;;;;82.22;45.15;;;;;;;6.38;71.54;100932.02;1783991;80;20976;-81
2021/10/12 02:57:19;;;;;;;79.55;44.25;;;;;;;6.35;71.54;100929.53;1783802;80;20900;-81
2021/10/12 02:59:46;;;;;;;79.62;44.48;;;;;;;6.30;71.49;100931.02;1784358;80;21350;-81
2021/10/12 03:02:13;;;;;;;80.15;45.30;;;;;;;6.25;71.51;100937.28;1784142;80;21109;-81
2021/10/12 03:04:40;;;;;;;73.95;44.93;;;;;;;6.15;71.64;100928.97;1783721;80;20880;-81
2021/10/12 03:07:06;;;;;;;79.17;44.03;;;;;;;6.07;71.83;100921.88;1783980;80;20888;-83
2021/10/12 03:09:35;;;;;;;69.75;43.60;;;;;;;6.01;71.95;100922.52;1783662;80;20908;-82
2021/10/12 03:12:02;;;;;;;76.92;44.03;;;;;;;5.96;72.07;100927.05;1783756;80;21095;-81
2021/10/12 03:14:29;;;;;;;79.53;45.65;;;;;;;5.94;72.23;100927.97;1783991;80;21147;-83
2021/10/12 03:16:57;;;;;;;81.12;42.27;;;;;;;5.91;72.20;100924.16;1783112;80;20884;-81
2021/10/12 03:19:24;;;;;;;67.30;39.90;;;;;;;5.88;72.26;100917.77;1775314;80;20924;-82
2021/10/12 03:21:58;;;;;;;66.33;41.20;;;;;;;5.85;72.21;100919.16;1775624;80;21039;-83
2021/10/12 03:24:19;;;;;;;68.67;39.20;;;;;;;5.80;72.13;100920.20;1773696;80;20912;-83
2021/10/12 03:26:47;;;;;;;58.98;35.52;;;;;;;5.76;72.05;100918.61;1775383;80;21528;-82
2021/10/12 03:29:14;;;;;;;69.45;35.58;;;;;;;5.71;72.16;100915.30;1775538;80;20994;-83
2021/10/12 03:31:41;;;;;;;68.12;33.35;;;;;;;5.66;72.34;100912.48;1775527;80;20948;-82
2021/10/12 03:34:08;;;;;;;67.53;34.43;;;;;;;5.61;72.54;100905.67;1775264;80;20889;-82
2021/10/12 03:36:34;;;;;;;63.85;34.38;;;;;;;5.59;72.59;100903.58;1775376;80;20941;-81
2021/10/12 03:39:02;;;;;;;68.92;36.23;;;;;;;5.56;72.72;100906.30;1775668;80;21470;-81
2021/10/12 03:41:29;;;;;;;60.90;36.73;;;;;;;5.55;72.77;100900.67;1775427;80;20924;-81
2021/10/12 03:43:55;;;;;;;66.45;36.48;;;;;;;5.54;72.66;100908.56;1775765;80;21086;-81
2021/10/12 03:46:23;;;;;;;67.20;35.50;;;;;;;5.50;72.51;100909.10;1775746;80;20972;-80
2021/10/12 03:48:50;;;;;;;62.55;34.55;;;;;;;5.45;72.31;100912.32;1775879;80;20967;-81
2021/10/12 03:51:17;;;;;;;50.65;28.75;;;;;;;5.40;72.22;100918.98;1775288;80;21537;-81
2021/10/12 03:53:44;;;;;;;54.58;29.63;;;;;;;5.34;72.51;100912.68;1775559;80;20905;-82
2021/10/12 03:56:11;;;;;;;46.68;29.72;;;;;;;5.32;72.80;100924.03;1775568;80;21461;-80
2021/10/12 03:58:38;;;;;;;58.08;29.55;;;;;;;5.27;73.03;100919.41;1775239;80;20900;-81
2021/10/12 04:01:05;;;;;;;57.85;30.37;;;;;;;5.25;73.19;100919.95;1775915;80;20853;-81
2021/10/12 04:03:31;;;;;;;49.33;28.15;;;;;;;5.24;73.29;100917.77;1753498;80;21146;-81
2021/10/12 04:05:58;;;;;;;60.35;28.00;;;;;;;5.24;73.33;100921.67;1775099;80;21510;-81
2021/10/12 04:08:25;;;;;;;54.77;29.15;;;;;;;5.24;73.27;100927.33;1775128;80;20901;-81
2021/10/12 04:10:55;;;;;;;57.83;31.17;;;;;;;5.22;73.23;100923.92;1775214;80;21425;-81
2021/10/12 04:13:23;;;;;;;61.75;29.95;;;;;;;5.20;73.22;100925.27;1775346;80;20979;-82
2021/10/12 04:15:50;;;;;;;57.23;29.42;;;;;;;5.18;73.18;100927.94;1775221;80;21133;-82
2021/10/12 04:18:17;;;;;;;52.20;31.23;;;;;;;5.19;73.09;100931.38;1775153;80;21044;-80
2021/10/12 04:20:44;;;;;;;46.42;26.55;;;;;;;5.18;73.16;100928.40;1775181;80;20916;-82
2021/10/12 04:23:16;;;;;;;56.18;28.87;;;;;;;5.17;73.15;100923.62;1775284;80;21050;-79
2021/10/12 04:26:00;;;;;;;52.60;29.87;;;;;;;5.14;73.10;100922.44;1775119;80;20925;-79
2021/10/12 04:28:31;;;;;;;56.20;28.62;;;;;;;5.13;73.30;100922.48;1774513;80;20916;-80
2021/10/12 04:31:00;;;;;;;52.43;30.17;;;;;;;5.12;73.60;100916.89;1753113;80;21406;-77
2021/10/12 04:33:29;;;;;;;79.95;35.38;;;;;;;5.14;73.83;100917.70;1775314;80;20940;-86
2021/10/12 04:36:05;;;;;;;73.95;36.77;;;;;;;5.15;74.11;100913.72;1773345;80;20972;-86
2021/10/12 04:38:42;;;;;;;72.32;35.43;;;;;;;5.27;74.28;100912.92;1773800;80;20988;-84
2021/10/12 04:41:09;;;;;;;66.95;32.65;;;;;;;5.42;74.24;100906.36;1775788;80;21127;-85
2021/10/12 04:43:44;;;;;;;63.87;32.53;;;;;;;5.52;74.02;100904.70;1775381;80;20888;-86
2021/10/12 04:46:10;;;;;;;71.22;31.68;;;;;;;5.61;73.67;100910.04;1775663;80;20991;-84
2021/10/12 04:48:37;;;;;;;68.85;33.60;;;;;;;5.70;73.55;100912.77;1753079;80;21394;-85
2021/10/12 04:51:04;;;;;;;68.07;30.35;;;;;;;5.77;73.49;100905.98;1775359;80;20980;-88
2021/10/12 04:53:31;;;;;;;72.70;30.55;;;;;;;5.85;73.45;100895.31;1775153;80;21767;-82
2021/10/12 04:55:58;;;;;;;72.82;33.67;;;;;;;5.95;73.29;100897.16;1775330;80;21401;-85
2021/10/12 04:58:26;;;;;;;65.40;34.70;;;;;;;6.03;73.13;100899.03;1775095;80;20896;-80
2021/10/12 05:00:53;;;;;;;83.40;34.80;;;;;;;6.11;73.29;100896.14;1775401;80;21146;-82
2021/10/12 05:03:21;;;;;;;74.47;36.15;;;;;;;6.27;73.37;100903.80;1775227;80;21715;-84
2021/10/12 05:05:48;;;;;;;76.57;35.68;;;;;;;6.42;73.22;100901.04;1775526;80;21059;-86
2021/10/12 05:08:15;;;;;;;117.35;45.28;;;;;;;6.55;72.95;100899.66;1775255;80;21379;-85
2021/10/12 05:10:41;;;;;;;105.78;44.33;;;;;;;6.69;72.71;100902.18;1775453;80;20920;-83
2021/10/12 05:13:10;;;;;;;93.78;40.35;;;;;;;6.80;72.48;100893.48;1775314;80;21429;-86
2021/10/12 05:15:45;;;;;;;88.03;37.50;;;;;;;6.92;72.29;100896.91;1775672;80;20920;-87
2021/10/12 05:18:13;;;;;;;80.30;37.05;;;;;;;7.04;72.15;100894.25;1774104;80;21118;-86
2021/10/12 05:20:37;;;;;;;71.22;35.63;;;;;;;7.18;72.09;100885.86;1774378;80;20971;-80
2021/10/12 05:23:03;;;;;;;74.92;37.58;;;;;;;7.35;71.97;100883.86;1775047;80;21453;-82
2021/10/12 05:25:31;;;;;;;82.17;37.65;;;;;;;7.52;71.80;100878.77;1774479;80;20979;-81
2021/10/12 05:27:58;;;;;;;105.22;39.63;;;;;;;7.71;71.46;100877.97;1775239;80;20912;-80
2021/10/12 05:30:25;;;;;;;78.90;36.35;;;;;;;7.85;71.20;100882.98;1775210;80;21123;-80
2021/10/12 05:32:53;;;;;;;83.00;37.33;;;;;;;7.99;70.88;100884.13;1775118;80;21389;-81
2021/10/12 05:35:20;;;;;;;74.60;37.85;;;;;;;8.12;70.67;100884.42;1775277;80;21390;-80
2021/10/12 05:37:47;;;;;;;80.53;37.55;;;;;;;8.20;70.46;100875.75;1775367;80;20913;-81
2021/10/12 05:40:14;;;;;;;68.78;35.05;;;;;;;8.30;70.41;100876.57;1775324;80;20979;-81
2021/10/12 05:42:41;;;;;;;70.37;35.88;;;;;;;8.50;70.66;100872.22;1775547;80;21053;-80
2021/10/12 05:45:09;;;;;;;83.85;37.80;;;;;;;8.75;70.59;100876.27;1775244;80;20849;-81
2021/10/12 05:47:36;;;;;;;81.12;38.25;;;;;;;9.10;70.44;100874.55;1775127;80;20873;-82
2021/10/12 05:50:03;;;;;;;88.90;37.78;;;;;;;9.53;69.84;100869.74;1775203;80;21417;-83
2021/10/12 05:52:32;;;;;;;80.57;34.50;;;;;;;10.08;69.20;100873.86;1775128;80;20952;-81
2021/10/12 05:55:09;;;;;;;95.07;46.53;;;;;;;10.74;68.12;100875.50;1775331;80;21151;-82
2021/10/12 06:00:09;;;;;;;61.28;30.40;;;;;;;12.28;64.64;100863.25;1775150;80;21386;-83
2021/10/12 06:02:39;;;;;;;32.53;18.92;;;;;;;13.20;62.35;100864.30;1775239;80;20900;-82
2021/10/12 06:05:06;;;;;;;34.27;19.27;;;;;;;14.06;59.69;100865.84;1775245;80;20862;-85
2021/10/12 06:07:33;;;;;;;44.08;24.10;;;;;;;14.82;57.30;100860.44;1775381;80;21091;-85
2021/10/12 06:10:00;;;;;;;42.88;23.10;;;;;;;15.51;55.69;100857.39;1775304;80;21540;-81
2021/10/12 06:12:27;;;;;;;37.10;18.67;;;;;;;16.19;54.33;100857.44;1775512;80;20885;-84
2021/10/12 06:14:53;;;;;;;37.50;18.65;;;;;;;16.83;52.05;100851.86;1775223;80;20885;-83
2021/10/12 06:17:20;;;;;;;32.93;16.65;;;;;;;17.44;49.99;100853.84;1775703;80;21450;-83
2021/10/12 06:19:47;;;;;;;32.42;17.52;;;;;;;17.96;48.72;100859.50;1781975;80;21116;-83
2021/10/12 06:22:14;;;;;;;26.65;13.38;;;;;;;18.49;47.53;100860.17;1783537;80;20916;-86
2021/10/12 06:24:41;;;;;;;24.32;12.65;;;;;;;19.00;46.54;100857.28;1783624;80;20971;-84
2021/10/12 06:27:08;;;;;;;19.55;11.38;;;;;;;19.32;45.60;100856.14;1783613;80;20939;-83
2021/10/12 06:29:35;;;;;;;20.68;11.78;;;;;;;19.28;44.55;100846.77;1784045;80;20983;-83
2021/10/12 06:32:03;;;;;;;26.87;11.18;;;;;;;18.96;44.46;100847.91;1783747;80;21146;-81
2021/10/12 06:34:30;;;;;;;14.60;10.80;;;;;;;18.55;44.78;100851.66;1783650;80;21500;-82
2021/10/12 06:36:57;;;;;;;17.02;9.95;;;;;;;18.09;45.28;100850.45;1783581;80;20889;-81
2021/10/12 06:39:24;;;;;;;21.85;12.82;;;;;;;17.60;46.05;100845.73;1783547;80;20900;-80
2021/10/12 06:41:54;;;;;;;17.15;11.40;;;;;;;17.16;46.95;100842.44;1783493;80;21018;-82
2021/10/12 06:44:21;;;;;;;21.40;11.28;;;;;;;16.81;47.83;100844.52;1783841;80;21105;-81
2021/10/12 06:46:48;;;;;;;19.40;11.73;;;;;;;16.54;48.66;100837.38;1784236;80;20935;-80
2021/10/12 06:49:15;;;;;;;24.18;12.78;;;;;;;16.36;49.39;100833.56;1784290;80;21032;-81
2021/10/12 06:51:43;;;;;;;18.32;12.75;;;;;;;16.21;49.71;100829.05;1783707;80;20931;-82
2021/10/12 06:54:10;;;;;;;30.52;12.43;;;;;;;16.06;50.04;100831.59;1783319;80;21322;-82
2021/10/12 06:56:37;;;;;;;22.32;13.43;;;;;;;15.92;50.37;100831.38;1783736;80;21120;-81
2021/10/12 06:59:04;;;;;;;29.48;12.53;;;;;;;15.76;50.76;100837.00;1783620;80;20932;-82
2021/10/12 07:01:31;;;;;;;24.52;11.97;;;;;;;15.64;51.31;100830.85;1783452;80;21082;-81
2021/10/12 07:03:58;;;;;;;22.87;12.73;;;;;;;15.42;51.81;100826.38;1783611;80;20896;-80
2021/10/12 07:06:25;;;;;;;20.65;11.95;;;;;;;15.42;51.81;100826.38;1784053;80;21430;-80
2021/10/12 07:08:52;;;;;;;20.15;12.20;;;;;;;15.33;52.24;100828.42;1783622;80;21114;-79
2021/10/12 07:11:18;;;;;;;17.37;11.90;;;;;;;15.28;52.71;100822.66;1783793;80;20885;-81
2021/10/12 07:13:48;;;;;;;22.70;12.03;;;;;;;15.26;53.02;100826.72;1783555;80;20860;-81
2021/10/12 07:16:16;;;;;;;22.80;12.73;;;;;;;15.81;53.10;100825.61;1783785;80;20983;-82
2021/10/12 07:18:43;;;;;;;24.45;14.58;;;;;;;15.81;53.10;100825.61;1783962;80;20928;-84
2021/10/12 07:21:11;;;;;;;29.63;13.88;;;;;;;16.53;51.51;100830.88;1783467;80;21146;-83
2021/10/12 07:23:39;;;;;;;25.10;14.70;;;;;;;17.30;49.89;100826.69;1783404;80;21483;-82
2021/10/12 07:26:06;;;;;;;24.30;14.43;;;;;;;17.94;48.26;100824.75;1783265;80;21018;-83
2021/10/12 07:28:34;;;;;;;26.45;14.70;;;;;;;18.39;47.11;100821.67;1783556;80;21353;-81
2021/10/12 07:31:03;;;;;;;25.62;14.65;;;;;;;18.70;46.00;100817.07;1783428;80;20974;-84
2021/10/12 07:33:30;;;;;;;25.27;13.35;;;;;;;18.88;45.64;100823.05;1783555;80;21094;-81
2021/10/12 07:35:57;;;;;;;25.88;13.60;;;;;;;19.04;45.14;100818.81;1783453;80;20897;-84
2021/10/12 07:38:24;;;;;;;23.92;11.40;;;;;;;19.15;44.93;100820.48;1783807;80;21449;-84
2021/10/12 07:40:51;;;;;;;15.65;10.75;;;;;;;19.22;44.81;100815.42;1783975;80;21007;-83
2021/10/12 07:43:19;;;;;;;18.60;10.85;;;;;;;19.41;44.76;100818.55;1783784;80;21358;-83
2021/10/12 07:45:48;;;;;;;18.87;10.60;;;;;;;19.73;44.27;100816.00;1783550;80;21131;-79
2021/10/12 07:48:19;;;;;;;15.95;10.72;;;;;;;20.12;43.56;100810.45;1783792;80;20908;-78
2021/10/12 07:50:46;;;;;;;15.78;9.13;;;;;;;20.56;42.44;100810.08;1783772;80;20931;-78
2021/10/12 07:53:13;;;;;;;14.10;9.90;;;;;;;21.02;41.31;100812.66;1783530;80;20924;-79
2021/10/12 07:55:44;;;;;;;15.43;9.75;;;;;;;21.53;40.95;100804.34;1783896;80;20884;-77
2021/10/12 07:58:08;;;;;;;16.48;8.58;;;;;;;22.17;40.25;100816.78;1783099;80;21559;-78
2021/10/12 08:00:35;;;;;;;14.20;8.15;;;;;;;22.66;38.60;100806.70;1783739;80;20920;-75
2021/10/12 08:03:02;;;;;;;12.47;7.00;;;;;;;23.07;37.38;100807.53;1783715;80;21007;-82
2021/10/12 08:05:31;;;;;;;12.47;7.28;;;;;;;23.46;37.13;100808.14;1783803;80;21361;-80
2021/10/12 08:07:59;;;;;;;12.47;6.90;;;;;;;23.92;36.59;100809.68;1783624;80;21374;-82
2021/10/12 08:10:26;;;;;;;11.80;7.40;;;;;;;24.20;35.43;100813.20;1783812;80;21090;-78
2021/10/12 08:12:57;;;;;;;9.10;6.42;;;;;;;24.36;35.40;100803.70;1783466;80;20935;-79
2021/10/12 08:15:22;;;;;;;10.90;6.95;;;;;;;24.44;35.05;100808.20;1783400;80;20920;-80
2021/10/12 08:17:49;;;;;;;14.03;6.87;;;;;;;24.60;34.74;100800.05;1783483;80;20920;-81
2021/10/12 08:20:16;;;;;;;11.00;7.97;;;;;;;24.88;34.14;100798.16;1777416;80;21442;-82
2021/10/12 08:22:43;;;;;;;14.03;7.42;;;;;;;25.14;33.57;100793.69;1775310;80;21115;-82
2021/10/12 08:25:10;;;;;;;14.90;6.90;;;;;;;25.47;33.35;100789.87;1775614;80;20896;-80
2021/10/12 08:27:38;;;;;;;13.35;8.53;;;;;;;25.77;32.80;100788.00;1777764;79;20853;-81
2021/10/12 08:30:07;;;;;;;13.08;6.12;;;;;;;25.96;32.70;100783.91;1778842;79;20861;-82
2021/10/12 08:32:36;;;;;;;13.78;8.80;;;;;;;26.20;32.46;100778.17;1778389;80;20936;-83
2021/10/12 08:35:04;;;;;;;12.63;7.20;;;;;;;26.46;31.80;100777.61;1778824;80;21434;-81
2021/10/12 08:37:31;;;;;;;10.68;6.10;;;;;;;26.79;31.14;100767.69;1778543;79;20932;-77
2021/10/12 08:39:58;;;;;;;11.60;6.50;;;;;;;27.08;31.04;100759.92;1778806;79;20865;-78
2021/10/12 08:42:37;;;;;;;13.22;7.28;;;;;;;27.44;30.79;100760.25;1777764;80;20822;-75
2021/10/12 08:45:07;;;;;;;10.50;7.15;;;;;;;27.75;29.88;100754.91;1755907;80;20952;-77
2021/10/12 08:47:34;;;;;;;10.68;7.40;;;;;;;28.09;29.48;100755.85;1776879;80;21133;-76
2021/10/12 08:50:06;;;;;;;13.48;7.08;;;;;;;28.33;29.03;100746.35;1777107;80;20913;-78
2021/10/12 08:52:33;;;;;;;17.60;8.25;;;;;;;28.35;29.05;100743.42;1776893;80;20936;-77
2021/10/12 08:55:00;;;;;;;19.92;9.33;;;;;;;28.36;28.85;100733.79;1776253;80;20885;-77
2021/10/12 08:57:37;;;;;;;14.87;8.95;;;;;;;28.57;28.84;100722.02;1776403;80;20873;-77
2021/10/12 09:00:14;;;;;;;14.93;9.15;;;;;;;28.80;28.62;100720.74;1777391;80;21915;-79
2021/10/12 09:05:55;;;;;;;13.58;7.22;;;;;;;29.17;27.42;100707.59;1775769;80;20929;-76
2021/10/12 09:08:42;;;;;;;9.68;5.80;;;;;;;29.16;27.85;100706.77;1775011;80;20908;-76
2021/10/12 09:11:21;;;;;;;13.65;7.17;;;;;;;29.21;27.91;100698.84;1774899;80;20923;-76
2021/10/12 09:14:07;;;;;;;13.32;7.30;;;;;;;29.25;27.40;100695.20;1756092;80;21107;-74
2021/10/12 09:16:37;;;;;;;12.95;6.83;;;;;;;29.26;27.52;100690.09;1774040;80;20976;-79
2021/10/12 09:19:05;;;;;;;12.95;7.62;;;;;;;29.13;27.37;100681.55;1775882;80;20971;-79
2021/10/12 09:21:37;;;;;;;16.48;7.97;;;;;;;28.92;27.95;100671.27;1783450;80;20947;-80
2021/10/12 09:24:11;;;;;;;15.20;7.97;;;;;;;28.79;28.09;100665.93;1783570;80;20931;-78
2021/10/12 09:26:50;;;;;;;11.18;7.75;;;;;;;28.73;28.25;100670.81;1783418;80;21133;-77
2021/10/12 09:29:35;;;;;;;16.77;9.60;;;;;;;28.70;28.40;100668.02;1783311;80;20853;-78
2021/10/12 09:32:01;;;;;;;10.48;7.65;;;;;;;28.65;28.29;100666.45;1783482;80;21327;-76
2021/10/12 09:34:28;;;;;;;10.72;6.90;;;;;;;28.59;28.49;100661.06;1783343;80;20928;-79
2021/10/12 09:36:56;;;;;;;12.98;6.87;;;;;;;28.50;28.82;100655.91;1783495;80;20900;-80
2021/10/12 09:39:33;;;;;;;9.18;7.00;;;;;;;28.59;28.55;100664.61;1783473;80;21575;-77
2021/10/12 09:42:06;;;;;;;13.32;7.33;;;;;;;28.71;28.57;100651.30;1783554;80;21068;-79
2021/10/12 09:44:51;;;;;;;8.40;5.78;;;;;;;28.95;28.60;100647.09;1783800;80;20924;-76
2021/10/12 09:47:19;;;;;;;11.50;5.60;;;;;;;29.25;28.49;100643.35;1783590;80;20892;-75
2021/10/12 09:49:46;;;;;;;8.38;5.78;;;;;;;29.52;28.10;100640.52;1783831;80;20961;-75
2021/10/12 09:52:15;;;;;;;10.70;5.53;;;;;;;29.77;27.82;100642.47;1783625;80;21130;-76
2021/10/12 09:54:48;;;;;;;15.65;7.05;;;;;;;30.02;27.24;100636.58;1783470;80;20939;-77
2021/10/12 09:57:20;;;;;;;7.92;5.37;;;;;;;30.11;27.37;100631.73;1783879;80;20907;-76
2021/10/12 09:59:48;;;;;;;8.80;5.90;;;;;;;30.15;27.10;100634.30;1784132;80;20888;-77
2021/10/12 10:02:20;;;;;;;8.60;5.30;;;;;;;29.92;27.10;100630.83;1784143;80;20896;-77
2021/10/12 10:04:48;;;;;;;9.30;5.65;;;;;;;29.61;27.15;100627.58;1784207;80;21048;-76
2021/10/12 10:07:27;;;;;;;9.90;6.85;;;;;;;29.16;27.88;100625.73;1784152;80;20893;-79
2021/10/12 10:10:00;;;;;;;9.30;5.12;;;;;;;29.01;28.14;100621.91;1783492;80;20900;-77
2021/10/12 10:12:27;;;;;;;9.25;5.78;;;;;;;29.10;28.34;100618.48;1783950;80;20939;-76
2021/10/12 10:14:54;;;;;;;10.58;5.33;;;;;;;29.36;28.13;100616.71;1783962;80;20952;-77
2021/10/12 10:17:21;;;;;;;9.58;5.12;;;;;;;29.60;27.96;100618.65;1783573;80;21507;-73
2021/10/12 10:19:48;;;;;;;11.95;4.90;;;;;;;29.69;27.55;100603.84;1781104;80;21020;-77
2021/10/12 10:22:40;;;;;;;13.00;5.55;;;;;;;29.59;27.50;100596.70;1775242;80;20953;-75
2021/10/12 10:25:40;;;;;;;6.55;5.10;;;;;;;29.45;27.65;100600.55;1775568;80;20940;-74
2021/10/12 10:28:24;;;;;;;10.28;5.60;;;;;;;29.22;27.83;100597.05;1775410;80;20920;-75
2021/10/12 10:31:01;;;;;;;7.55;4.67;;;;;;;28.87;28.19;100590.62;1775189;80;21064;-75
2021/10/12 10:33:31;;;;;;;9.93;4.62;;;;;;;28.73;28.48;100598.77;1775258;80;21369;-73
2021/10/12 10:36:01;;;;;;;6.20;4.85;;;;;;;28.59;28.50;100589.55;1773720;80;20896;-76
2021/10/12 10:38:31;;;;;;;6.05;4.92;;;;;;;28.48;28.54;100588.33;1774860;80;20932;-76
2021/10/12 10:41:11;;;;;;;10.70;5.37;;;;;;;28.18;29.04;100585.25;1774984;80;20881;-74
2021/10/12 10:44:01;;;;;;;9.03;5.28;;;;;;;27.87;29.14;100586.17;1775202;80;21158;-74
2021/10/12 10:46:35;;;;;;;9.20;4.65;;;;;;;27.61;29.19;100582.90;1775164;80;21015;-73
2021/10/12 10:49:11;;;;;;;12.90;4.53;;;;;;;27.52;29.57;100573.36;1775276;80;21430;-74
2021/10/12 10:52:01;;;;;;;9.88;4.42;;;;;;;27.60;29.80;100573.17;1775246;80;21007;-73
2021/10/12 10:54:45;;;;;;;10.43;5.08;;;;;;;27.80;29.73;100564.28;1775215;80;20912;-73
2021/10/12 10:57:19;;;;;;;10.58;4.95;;;;;;;27.93;29.66;100562.14;1775372;80;21129;-74
2021/10/12 11:00:14;;;;;;;8.15;4.67;;;;;;;27.72;29.31;100552.34;1775181;80;21370;-75
2021/10/12 11:02:43;;;;;;;9.45;4.72;;;;;;;27.18;29.79;100553.58;1775129;80;20972;-74
2021/10/12 11:05:10;;;;;;;7.78;4.33;;;;;;;26.74;30.50;100547.30;1775676;80;20960;-73
2021/10/12 11:07:37;;;;;;;15.38;5.10;;;;;;;26.37;31.08;100549.34;1753339;80;20987;-72
2021/10/12 11:10:05;;;;;;;9.68;5.08;;;;;;;26.02;31.59;100543.95;1775114;80;21950;-72
2021/10/12 11:12:32;;;;;;;8.80;5.25;;;;;;;25.66;31.51;100542.19;1775188;80;20861;-73
2021/10/12 11:15:06;;;;;;;10.30;5.37;;;;;;;25.30;31.87;100547.11;1775252;80;21337;-71
2021/10/12 11:17:33;;;;;;;8.40;4.87;;;;;;;24.96;32.44;100543.69;1775417;80;21604;-73
2021/10/12 11:20:02;;;;;;;8.53;5.12;;;;;;;24.57;32.93;100546.20;1775426;80;20873;-74
2021/10/12 11:22:29;;;;;;;10.65;5.70;;;;;;;24.09;33.56;100546.48;1775202;80;21085;-72
2021/10/12 11:24:57;;;;;;;11.38;4.80;;;;;;;23.59;34.36;100534.01;1775277;80;20999;-74
2021/10/12 11:27:24;;;;;;;11.85;5.58;;;;;;;23.29;35.07;100538.39;1775386;80;21437;-72
2021/10/12 11:30:10;;;;;;;10.40;4.83;;;;;;;22.94;35.86;100535.23;1775253;80;20996;-73
2021/10/12 11:32:38;;;;;;;10.68;6.60;;;;;;;22.65;36.13;100527.00;1775304;80;21466;-74